Time;durP1;ratioP1;P1;durP2;ratioP2;P2;SDS_P1;SDS_P2;PMS_P1;PMS_P2;Temp;Humidity;BMP_temperature;BMP_pressure;BME280_temperature;BME280_humidity;BME280_pressure;Samples;Min_cycle;Max_cycle;Signal;HPM_P1;HPM_P2
2023/05/23 04:32:53;;;;;;;;;23.50;22.50;;;;;16.55;65.46;101684.81;5061760;28;45294;-75
2023/05/23 04:35:19;;;;;;;;;27.75;21.75;;;;;16.54;65.54;101690.31;5074661;28;45409;-75
2023/05/23 04:37:45;;;;;;;;;23.00;21.75;;;;;16.49;65.55;101685.16;5076058;28;45554;-73
2023/05/23 04:40:12;;;;;;;;;16.75;16.75;;;;;16.49;65.62;101695.09;5075654;28;45379;-74
2023/05/23 04:42:37;;;;;;;;;21.50;16.50;;;;;16.45;65.96;101694.38;5074109;28;46275;-73
2023/05/23 04:45:03;;;;;;;;;24.75;21.75;;;;;16.50;65.42;101700.41;5075394;28;45333;-75
2023/05/23 04:47:28;;;;;;;;;28.75;24.50;;;;;16.49;65.50;101687.88;5057206;28;45367;-74
2023/05/23 04:49:56;;;;;;;;;21.25;20.50;;;;;16.51;65.57;101694.03;5075114;28;46145;-75
2023/05/23 04:52:21;;;;;;;;;22.25;22.25;;;;;16.50;65.91;101699.56;5074621;28;46050;-75
2023/05/23 04:54:47;;;;;;;;;23.00;22.00;;;;;16.51;65.95;101701.28;5075372;28;45344;-73
2023/05/23 04:57:13;;;;;;;;;27.50;22.25;;;;;16.50;66.00;101697.69;5075520;27;46472;-74
2023/05/23 04:59:38;;;;;;;;;24.75;21.25;;;;;16.47;66.33;101694.31;5082239;27;45547;-75
2023/05/23 05:02:05;;;;;;;;;26.00;22.25;;;;;16.43;66.67;101688.19;5075122;28;45713;-76
2023/05/23 05:04:31;;;;;;;;;21.75;21.00;;;;;16.51;66.60;101695.88;5075360;28;45375;-75
2023/05/23 05:06:56;;;;;;;;;26.00;24.00;;;;;16.53;66.46;101702.97;5075151;28;45453;-74
2023/05/23 05:09:22;;;;;;;;;24.00;20.25;;;;;16.51;65.90;101679.63;5075251;28;45458;-73
2023/05/23 05:11:48;;;;;;;;;16.50;14.25;;;;;16.55;65.77;101702.88;5070808;28;46348;-74
2023/05/23 05:14:14;;;;;;;;;21.75;19.25;;;;;16.35;65.51;101684.16;5069490;28;45481;-75
2023/05/23 05:16:39;;;;;;;;;21.75;16.00;;;;;16.50;65.76;101711.25;5075506;28;45422;-73
2023/05/23 05:19:04;;;;;;;;;16.50;15.50;;;;;16.52;65.96;101705.75;5074209;28;45264;-72
2023/05/23 05:21:30;;;;;;;;;24.00;22.50;;;;;16.50;66.25;101705.81;5074952;28;45497;-75
2023/05/23 05:23:56;;;;;;;;;24.00;20.25;;;;;16.57;66.16;101711.81;5075281;28;45254;-72
2023/05/23 05:26:22;;;;;;;;;22.00;17.00;;;;;16.57;65.61;101718.09;5075283;28;45765;-73
2023/05/23 05:28:48;;;;;;;;;16.00;15.00;;;;;16.55;65.82;101711.00;5074600;28;45599;-77
2023/05/23 05:31:14;;;;;;;;;18.00;16.00;;;;;16.37;65.84;101687.66;5054671;28;47010;-76
2023/05/23 05:33:40;;;;;;;;;18.00;17.25;;;;;16.42;66.38;101693.66;5071342;28;45434;-76
2023/05/23 05:36:06;;;;;;;;;18.75;16.75;;;;;16.48;66.37;101715.88;5074007;28;45431;-76
2023/05/23 05:38:32;;;;;;;;;19.00;19.00;;;;;16.23;66.64;101669.47;5074895;28;45550;-75
2023/05/23 05:40:57;;;;;;;;;19.25;17.50;;;;;16.50;66.91;101715.81;5055438;28;46587;-76
2023/05/23 05:43:24;;;;;;;;;19.25;17.75;;;;;16.46;66.70;101717.78;5072246;28;45387;-75
2023/05/23 05:45:49;;;;;;;;;19.25;17.75;;;;;16.42;66.84;101705.38;5073419;28;45358;-75
2023/05/23 05:48:15;;;;;;;;;19.50;16.75;;;;;16.44;66.64;101708.00;5072772;28;45422;-74
2023/05/23 05:50:44;;;;;;;;;15.50;14.00;;;;;16.47;66.95;101722.25;5066649;28;46155;-74
2023/05/23 05:53:09;;;;;;;;;17.50;16.25;;;;;16.46;66.50;101706.09;5074471;28;45426;-74
2023/05/23 05:55:34;;;;;;;;;19.50;18.75;;;;;16.59;66.65;101726.09;5058406;27;45694;-74
2023/05/23 05:58:00;;;;;;;;;10.25;10.25;;;;;16.57;66.16;101719.91;5087005;27;45527;-73
2023/05/23 06:00:25;;;;;;;;;15.00;15.00;;;;;16.55;66.32;101722.72;5073760;27;45426;-77
2023/05/23 06:02:52;;;;;;;;;18.50;14.50;;;;;16.57;66.42;101730.75;5055450;28;45570;-74
2023/05/23 06:05:18;;;;;;;;;16.75;16.50;;;;;16.56;66.75;101729.00;5074172;28;45421;-72
2023/05/23 06:07:43;;;;;;;;;15.25;14.75;;;;;16.59;66.60;101728.81;5072887;28;45410;-72
2023/05/23 06:10:11;;;;;;;;;13.25;12.50;;;;;16.65;66.26;101736.66;5054685;28;45499;-74
2023/05/23 06:12:37;;;;;;;;;14.00;14.00;;;;;16.64;66.37;101741.19;5070820;28;45402;-75
2023/05/23 06:15:03;;;;;;;;;7.50;7.50;;;;;16.52;66.14;101716.56;5067829;28;45600;-73
2023/05/23 06:17:29;;;;;;;;;17.25;15.00;;;;;16.55;66.22;101724.53;5071632;28;45548;-73
2023/05/23 06:19:54;;;;;;;;;14.75;14.50;;;;;16.61;66.79;101729.63;5071753;28;46077;-75
2023/05/23 06:22:19;;;;;;;;;18.25;17.00;;;;;16.67;66.74;101734.75;5071640;28;46036;-75
2023/05/23 06:24:45;;;;;;;;;19.25;14.00;;;;;16.62;66.47;101732.28;5071630;28;45403;-74
2023/05/23 06:27:11;;;;;;;;;15.75;15.00;;;;;16.69;66.74;101749.03;5073657;28;45547;-75
2023/05/23 06:29:36;;;;;;;;;13.00;13.00;;;;;16.64;66.22;101733.06;5069566;28;45465;-74
2023/05/23 06:32:01;;;;;;;;;15.25;13.00;;;;;16.62;66.29;101731.38;5053818;28;45469;-78
2023/05/23 06:34:27;;;;;;;;;15.00;15.00;;;;;16.60;66.56;101742.25;5047087;28;45524;-74
2023/05/23 06:36:53;;;;;;;;;16.50;15.25;;;;;16.59;66.64;101737.81;5051783;28;45444;-74
2023/05/23 06:39:18;;;;;;;;;15.75;12.50;;;;;16.58;66.65;101735.22;5053841;28;45501;-75
2023/05/23 06:41:44;;;;;;;;;18.00;15.75;;;;;16.59;66.72;101739.63;5050579;28;45746;-74
2023/05/23 06:44:09;;;;;;;;;16.00;14.00;;;;;16.51;67.02;101740.06;5055180;28;45461;-75
2023/05/23 06:46:34;;;;;;;;;16.75;14.25;;;;;16.61;67.26;101754.00;5054409;28;53431;-75
2023/05/23 06:49:00;;;;;;;;;15.25;15.25;;;;;16.57;67.09;101738.88;5055158;28;46032;-76
2023/05/23 06:51:25;;;;;;;;;18.50;17.25;;;;;16.59;67.14;101758.59;5062677;28;45290;-77
2023/05/23 06:53:51;;;;;;;;;18.50;16.25;;;;;16.60;67.19;101765.75;5030345;28;45290;-75
2023/05/23 06:56:16;;;;;;;;;19.75;18.00;;;;;16.59;67.19;101767.59;5059804;28;45252;-74
2023/05/23 06:58:41;;;;;;;;;19.50;18.25;;;;;16.63;67.30;101762.94;5042115;28;48529;-77
2023/05/23 07:01:07;;;;;;;;;19.75;18.50;;;;;16.64;67.22;101764.69;5057665;28;45417;-78
2023/05/23 07:03:33;;;;;;;;;19.00;17.25;;;;;16.57;67.08;101750.56;5074134;28;45571;-75
2023/05/23 07:05:59;;;;;;;;;18.50;17.25;;;;;16.71;67.17;101776.91;5076641;28;45611;-75
2023/05/23 07:08:24;;;;;;;;;19.75;15.75;;;;;16.74;66.52;101774.06;5076745;28;45764;-76
2023/05/23 07:10:50;;;;;;;;;22.25;17.50;;;;;16.75;66.17;101769.50;5077161;28;45332;-77
2023/05/23 07:13:15;;;;;;;;;20.50;16.50;;;;;16.73;66.17;101787.66;5066561;28;45410;-75
2023/05/23 07:15:40;;;;;;;;;18.00;18.00;;;;;16.60;66.31;101763.06;5056605;28;45336;-76
2023/05/23 07:18:06;;;;;;;;;20.75;16.00;;;;;16.72;66.00;101800.34;5056048;28;48637;-76
2023/05/23 07:20:34;;;;;;;;;14.50;14.00;;;;;16.70;66.42;101787.81;5056420;28;45385;-74
2023/05/23 07:23:00;;;;;;;;;22.00;20.00;;;;;16.70;66.56;101790.53;5056525;28;45373;-74
2023/05/23 07:25:25;;;;;;;;;22.25;20.25;;;;;16.64;66.56;101780.94;5056599;28;45274;-75
2023/05/23 07:27:53;;;;;;;;;17.75;15.50;;;;;16.66;66.50;101783.56;5056246;28;45316;-75
2023/05/23 07:30:20;;;;;;;;;27.00;19.25;;;;;16.66;66.59;101787.13;5056382;28;45340;-77
2023/05/23 07:32:46;;;;;;;;;23.50;22.00;;;;;16.70;66.78;101783.28;5067476;28;45827;-76
2023/05/23 07:35:12;;;;;;;;;23.00;18.25;;;;;16.66;66.23;101784.44;5056198;28;46476;-76
2023/05/23 07:37:37;;;;;;;;;21.75;21.75;;;;;16.73;66.48;101799.38;5056340;28;45940;-75
2023/05/23 07:40:04;;;;;;;;;23.75;21.00;;;;;16.76;66.21;101804.59;5056087;28;45507;-76
2023/05/23 07:42:29;;;;;;;;;20.00;19.00;;;;;16.77;66.33;101795.53;5056358;28;45453;-75
2023/05/23 07:44:55;;;;;;;;;19.75;18.75;;;;;16.69;66.44;101784.25;5056126;28;45619;-76
2023/05/23 07:47:20;;;;;;;;;23.75;22.00;;;;;16.79;66.32;101799.03;5055685;28;46828;-75
2023/05/23 07:49:46;;;;;;;;;20.50;19.25;;;;;16.79;66.46;101807.16;5055676;28;45323;-76
2023/05/23 07:52:11;;;;;;;;;19.50;17.00;;;;;16.76;66.29;101798.34;5062344;28;45368;-76
2023/05/23 07:54:37;;;;;;;;;17.50;16.50;;;;;16.78;66.22;101802.69;5063408;28;45675;-76
2023/05/23 07:57:02;;;;;;;;;20.25;15.50;;;;;16.80;65.97;101817.03;5069983;27;57604;-75
2023/05/23 07:59:29;;;;;;;;;26.00;24.00;;;;;16.83;66.03;101814.16;5075749;28;45407;-74
2023/05/23 08:01:54;;;;;;;;;17.75;16.00;;;;;16.84;65.76;101801.50;5075821;28;45528;-75
2023/05/23 08:04:20;;;;;;;;;21.25;18.75;;;;;16.89;65.16;101811.13;5076158;28;45563;-75
2023/05/23 08:06:46;;;;;;;;;19.25;17.75;;;;;16.85;65.36;101809.53;5056957;28;47242;-76
2023/05/23 08:09:12;;;;;;;;;16.25;16.25;;;;;16.83;65.26;101810.59;5038154;28;45305;-76
2023/05/23 08:11:37;;;;;;;;;21.25;15.00;;;;;16.76;65.30;101796.47;5037912;28;45326;-74
2023/05/23 08:14:02;;;;;;;;;14.75;13.75;;;;;16.89;65.55;101818.38;5055511;28;45398;-75
2023/05/23 08:16:28;;;;;;;;;17.25;14.50;;;;;16.86;65.32;101818.53;5037689;28;45542;-76
2023/05/23 08:18:53;;;;;;;;;17.25;17.25;;;;;16.81;65.62;101804.38;5055634;28;45347;-75
2023/05/23 08:21:18;;;;;;;;;18.50;18.50;;;;;16.91;65.69;101817.31;5055870;28;45306;-76
2023/05/23 08:23:43;;;;;;;;;18.00;18.00;;;;;16.93;65.59;101812.69;5055687;28;45564;-75
2023/05/23 08:26:09;;;;;;;;;14.25;14.25;;;;;17.01;65.73;101828.53;5055369;28;51360;-76
2023/05/23 08:28:34;;;;;;;;;21.00;15.00;;;;;16.95;65.45;101812.59;5055611;28;45312;-75
2023/05/23 08:31:00;;;;;;;;;18.75;17.00;;;;;16.99;65.35;101830.44;5055445;28;45339;-75
2023/05/23 08:33:25;;;;;;;;;20.50;17.00;;;;;17.01;65.31;101820.41;5037104;28;46738;-76
2023/05/23 08:35:51;;;;;;;;;19.50;19.50;;;;;17.07;65.29;101824.59;5037160;28;47073;-75
2023/05/23 08:38:17;;;;;;;;;17.25;16.75;;;;;17.02;64.91;101828.44;5055388;28;45441;-75
2023/05/23 08:40:50;;;;;;;;;15.75;14.75;;;;;16.97;65.20;101826.94;5055299;28;45368;-76
2023/05/23 08:43:15;;;;;;;;;10.25;10.25;;;;;16.92;65.59;101826.34;5055518;28;45327;-76
2023/05/23 08:45:41;;;;;;;;;15.00;14.50;;;;;16.98;65.64;101828.69;5055033;28;46132;-75
2023/05/23 08:48:12;;;;;;;;;18.00;16.25;;;;;16.90;65.69;101815.56;5055171;28;45193;-75
2023/05/23 08:50:39;;;;;;;;;19.25;18.25;;;;;16.88;65.63;101811.19;5055283;28;45367;-75
2023/05/23 08:53:07;;;;;;;;;17.75;16.25;;;;;17.01;66.00;101829.38;5069651;28;45361;-76
2023/05/23 08:55:33;;;;;;;;;16.25;15.25;;;;;17.05;66.91;101840.94;5057802;28;46003;-74
2023/05/23 08:57:59;;;;;;;;;20.75;20.75;;;;;16.99;66.73;101822.31;5077343;27;45454;-75
2023/05/23 09:00:26;;;;;;;;;21.50;21.00;;;;;17.01;66.91;101817.69;5075344;28;45928;-75
2023/05/23 09:02:53;;;;;;;;;19.00;19.00;;;;;17.03;66.86;101829.31;5074967;28;45446;-76
2023/05/23 09:05:19;;;;;;;;;17.00;16.00;;;;;16.99;66.82;101831.31;5068537;28;45343;-74
2023/05/23 09:07:50;;;;;;;;;21.75;18.25;;;;;17.02;67.02;101838.38;5054660;28;45380;-75
2023/05/23 09:10:16;;;;;;;;;20.50;18.50;;;;;17.04;67.06;101833.75;5058020;28;45325;-75
2023/05/23 09:12:42;;;;;;;;;20.25;18.25;;;;;17.06;67.30;101826.44;5069507;28;45569;-77
2023/05/23 09:15:08;;;;;;;;;19.25;17.25;;;;;17.17;67.09;101842.09;5075377;28;46094;-75
2023/05/23 09:17:35;;;;;;;;;21.25;21.25;;;;;17.12;66.48;101838.75;5074823;28;45232;-74
2023/05/23 09:20:01;;;;;;;;;22.25;19.50;;;;;17.17;66.52;101836.69;5075302;28;45314;-75
2023/05/23 09:22:27;;;;;;;;;21.75;19.75;;;;;17.11;65.73;101829.75;5074688;28;45589;-75
2023/05/23 09:24:56;;;;;;;;;18.00;16.00;;;;;17.17;65.88;101844.81;5074460;28;45439;-76
2023/05/23 09:27:22;;;;;;;;;21.75;20.75;;;;;17.17;65.67;101845.69;5074548;28;45366;-74
2023/05/23 09:29:48;;;;;;;;;21.50;20.50;;;;;17.08;65.56;101824.53;5075174;28;45281;-76
2023/05/23 09:32:18;;;;;;;;;21.25;19.25;;;;;17.24;65.84;101844.38;5074363;28;45261;-76
2023/05/23 09:34:56;;;;;;;;;21.50;18.00;;;;;17.27;65.51;101844.19;5074760;28;45357;-75
2023/05/23 09:37:28;;;;;;;;;23.25;22.25;;;;;17.31;65.27;101844.91;5074508;28;45490;-76
2023/05/23 09:39:54;;;;;;;;;26.25;22.25;;;;;17.33;65.00;101843.84;5074839;28;45220;-76
2023/05/23 09:42:23;;;;;;;;;24.50;21.75;;;;;17.32;65.08;101833.97;5074631;28;45268;-76
2023/05/23 09:44:49;;;;;;;;;27.50;24.00;;;;;17.30;64.95;101837.72;5074918;28;46125;-76
2023/05/23 09:47:16;;;;;;;;;21.50;20.50;;;;;17.31;64.98;101844.91;5074261;28;45604;-76
2023/05/23 09:49:45;;;;;;;;;22.25;19.50;;;;;17.34;65.12;101842.91;5074380;28;45535;-76
2023/05/23 09:52:11;;;;;;;;;24.75;20.50;;;;;17.36;64.92;101842.78;5072493;28;45598;-75
2023/05/23 09:54:36;;;;;;;;;25.50;25.50;;;;;17.32;64.94;101844.81;5074416;28;46116;-75
2023/05/23 09:57:05;;;;;;;;;26.00;24.50;;;;;17.38;65.32;101843.59;5075040;27;45445;-75
2023/05/23 09:59:33;;;;;;;;;17.25;17.25;;;;;17.42;65.04;101850.59;5074656;28;45364;-75
2023/05/23 10:02:01;;;;;;;;;25.25;21.50;;;;;17.43;64.84;101851.47;5073908;28;45564;-76
2023/05/23 10:04:31;;;;;;;;;25.25;24.00;;;;;17.44;64.90;101848.66;5074186;28;46160;-75
2023/05/23 10:07:03;;;;;;;;;23.50;21.00;;;;;17.45;64.83;101855.81;5073882;28;45272;-75
2023/05/23 10:09:32;;;;;;;;;27.75;23.50;;;;;17.36;64.84;101842.78;5074932;28;45359;-76
2023/05/23 10:12:31;;;;;;;;;19.75;19.00;;;;;17.36;64.66;101859.06;5074388;28;45645;-75
2023/05/23 10:15:02;;;;;;;;;19.25;19.25;;;;;17.33;64.64;101856.53;5068628;28;46378;-75
2023/05/23 10:17:56;;;;;;;;;20.00;18.50;;;;;17.23;64.75;101841.75;5074228;28;45220;-76
2023/05/23 10:20:25;;;;;;;;;22.50;19.50;;;;;17.37;64.38;101860.81;5074239;28;45440;-75
2023/05/23 10:22:50;;;;;;;;;19.75;19.75;;;;;17.42;63.83;101852.44;5074062;28;45589;-77
2023/05/23 10:25:16;;;;;;;;;18.25;15.25;;;;;17.48;63.26;101861.09;5074161;28;46175;-77
2023/05/23 10:27:42;;;;;;;;;18.00;15.75;;;;;17.52;63.20;101853.66;5074129;28;45244;-76
2023/05/23 10:30:08;;;;;;;;;20.00;18.75;;;;;17.48;62.99;101852.06;5074575;28;45476;-77
2023/05/23 10:32:36;;;;;;;;;20.00;20.00;;;;;17.48;63.10;101858.38;5073710;28;45539;-75
2023/05/23 10:35:29;;;;;;;;;21.00;15.75;;;;;17.51;63.51;101857.34;5055625;28;46449;-76
2023/05/23 10:38:17;;;;;;;;;22.25;20.50;;;;;17.45;63.27;101855.81;5076685;28;45390;-76
2023/05/23 10:41:12;;;;;;;;;20.75;19.25;;;;;17.39;63.67;101865.19;5077716;28;45333;-76
2023/05/23 10:44:05;;;;;;;;;21.00;19.00;;;;;17.37;63.56;101861.69;5077430;28;45214;-76
2023/05/23 10:46:51;;;;;;;;;15.75;15.75;;;;;17.38;63.79;101860.72;5057471;28;46429;-77
2023/05/23 10:49:16;;;;;;;;;20.50;19.00;;;;;17.38;63.62;101860.72;5075135;28;45636;-75
2023/05/23 10:51:42;;;;;;;;;18.75;18.75;;;;;17.38;63.69;101858.00;5071612;28;45379;-76
2023/05/23 10:54:11;;;;;;;;;17.00;17.00;;;;;17.36;63.71;101848.22;5054786;28;45594;-76
2023/05/23 10:56:36;;;;;;;;;18.50;17.75;;;;;17.37;63.50;101858.09;5067197;27;46240;-76
2023/05/23 10:59:05;;;;;;;;;23.75;18.00;;;;;17.34;63.11;101848.31;5075116;28;45364;-75
2023/05/23 11:01:31;;;;;;;;;17.75;17.25;;;;;17.43;62.71;101852.34;5075426;28;45632;-76
2023/05/23 11:03:56;;;;;;;;;15.50;15.50;;;;;17.45;62.46;101847.69;5057895;28;45501;-77
2023/05/23 11:06:40;;;;;;;;;15.50;15.50;;;;;17.57;62.60;101855.13;5076967;28;46049;-77
2023/05/23 11:09:12;;;;;;;;;17.75;16.50;;;;;17.63;62.02;101852.09;5077380;28;45401;-76
2023/05/23 11:11:52;;;;;;;;;24.00;19.25;;;;;17.72;62.03;101854.28;5077352;28;45338;-76
2023/05/23 11:14:36;;;;;;;;;19.75;18.50;;;;;17.78;61.73;101853.03;5057609;28;45643;-74
2023/05/23 11:17:11;;;;;;;;;15.25;15.25;;;;;17.85;61.45;101853.56;5056566;28;46249;-76
2023/05/23 11:19:36;;;;;;;;;18.25;18.00;;;;;17.85;61.18;101854.47;5056470;28;45272;-76
2023/05/23 11:22:04;;;;;;;;;14.25;14.25;;;;;17.84;61.23;101844.56;5057271;28;45435;-77
2023/05/23 11:24:51;;;;;;;;;16.00;16.00;;;;;17.90;61.03;101851.47;5056544;28;45181;-76
2023/05/23 11:27:29;;;;;;;;;22.75;21.75;;;;;17.95;60.62;101846.66;5056369;28;46267;-76
2023/05/23 11:30:16;;;;;;;;;19.50;19.50;;;;;18.02;61.09;101843.47;5056730;28;45340;-77
2023/05/23 11:32:49;;;;;;;;;19.50;17.50;;;;;18.09;59.96;101855.72;5048055;28;45514;-76
2023/05/23 11:35:15;;;;;;;;;20.75;19.50;;;;;18.13;59.45;101843.69;5056242;28;45412;-76
2023/05/23 11:37:42;;;;;;;;;18.25;17.25;;;;;18.11;59.55;101832.09;5056328;28;46120;-75
2023/05/23 11:40:31;;;;;;;;;17.25;15.50;;;;;18.19;58.60;101838.88;5057172;28;45389;-77
2023/05/23 11:42:57;;;;;;;;;19.50;16.25;;;;;18.28;58.50;101841.91;5056561;28;45493;-76
2023/05/23 11:45:23;;;;;;;;;19.75;18.75;;;;;18.37;57.71;101840.50;5055806;28;45395;-78
2023/05/23 11:47:49;;;;;;;;;19.00;19.00;;;;;18.45;57.78;101841.75;5055621;28;45553;-75
2023/05/23 11:50:15;;;;;;;;;21.75;20.00;;;;;18.58;57.48;101833.75;5055109;28;45389;-75
2023/05/23 11:52:41;;;;;;;;;16.50;16.50;;;;;18.76;56.97;101834.44;5067346;28;45404;-76
2023/05/23 11:55:07;;;;;;;;;17.00;17.00;;;;;18.98;56.24;101820.38;5059414;28;45380;-76
2023/05/23 11:57:37;;;;;;;;;19.50;19.50;;;;;19.23;55.00;101815.97;5079152;27;46373;-76
2023/05/23 12:00:06;;;;;;;;;19.25;17.00;;;;;19.46;54.43;101809.03;5079419;27;45410;-75
2023/05/23 12:02:40;;;;;;;;;19.75;19.00;;;;;19.65;53.77;101823.19;5076348;28;45462;-76
2023/05/23 12:05:12;;;;;;;;;18.25;18.25;;;;;19.82;53.41;101823.91;5075984;28;45413;-77
2023/05/23 12:07:46;;;;;;;;;14.25;11.50;;;;;19.87;53.54;101817.19;5076328;28;45421;-76
2023/05/23 12:10:12;;;;;;;;;17.50;16.50;;;;;19.84;53.13;101820.09;5076153;28;45363;-76
2023/05/23 12:12:39;;;;;;;;;20.25;17.75;;;;;19.81;53.15;101828.50;5070971;28;45395;-76
2023/05/23 12:15:05;;;;;;;;;17.00;16.50;;;;;19.77;53.32;101831.50;5058582;28;45549;-76
2023/05/23 12:17:31;;;;;;;;;19.00;18.25;;;;;19.72;53.50;101834.53;5075535;28;45454;-75
2023/05/23 12:19:57;;;;;;;;;19.25;16.75;;;;;19.72;53.36;101826.38;5075632;28;45254;-76
2023/05/23 12:22:23;;;;;;;;;18.75;17.75;;;;;19.74;53.71;101824.41;5075988;28;45365;-75
2023/05/23 12:24:53;;;;;;;;;13.75;13.75;;;;;19.80;53.61;101825.88;5057962;28;45282;-75
2023/05/23 12:27:18;;;;;;;;;14.25;13.00;;;;;19.89;53.13;101834.28;5075413;28;45384;-75
2023/05/23 12:29:52;;;;;;;;;19.75;19.00;;;;;20.01;52.92;101822.53;5075758;28;45414;-75
2023/05/23 12:32:18;;;;;;;;;18.25;16.75;;;;;20.32;53.05;101820.44;5075198;28;45466;-74
2023/05/23 12:34:43;;;;;;;;;21.75;18.50;;;;;20.68;52.11;101815.16;5075438;28;45342;-77
2023/05/23 12:37:09;;;;;;;;;20.75;19.00;;;;;20.99;50.73;101804.78;5075515;28;45449;-75
2023/05/23 12:39:35;;;;;;;;;14.75;14.75;;;;;21.36;50.32;101811.16;5075712;28;45398;-76
2023/05/23 12:42:09;;;;;;;;;14.75;14.25;;;;;21.66;48.04;101805.28;5075635;28;45295;-77
2023/05/23 12:44:35;;;;;;;;;17.50;16.00;;;;;21.84;48.33;101806.59;5075541;28;45310;-77
2023/05/23 12:47:02;;;;;;;;;16.50;16.25;;;;;22.10;46.67;101807.38;5075108;28;46223;-75
2023/05/23 12:49:27;;;;;;;;;14.50;12.50;;;;;22.33;46.53;101797.38;5075548;28;45322;-76
2023/05/23 12:51:53;;;;;;;;;15.75;15.00;;;;;22.45;46.38;101789.09;5073991;28;45160;-76
2023/05/23 12:54:18;;;;;;;;;17.00;15.75;;;;;22.32;44.75;101792.88;5065241;28;45533;-76
2023/05/23 12:56:43;;;;;;;;;19.25;18.00;;;;;22.18;45.49;101785.78;5074129;27;45401;-76
2023/05/23 12:59:09;;;;;;;;;19.25;18.25;;;;;22.16;45.55;101772.25;5082913;27;45315;-77
2023/05/23 13:01:34;;;;;;;;;13.50;13.50;;;;;22.37;45.88;101779.75;5075349;28;45568;-75
2023/05/23 13:04:00;;;;;;;;;15.25;15.25;;;;;22.77;45.39;101786.53;5075238;28;45320;-76
2023/05/23 13:06:26;;;;;;;;;17.75;13.25;;;;;22.81;44.44;101777.09;5075048;28;45470;-77
2023/05/23 13:08:53;;;;;;;;;13.50;12.00;;;;;22.95;43.32;101768.66;5075001;28;45367;-76
2023/05/23 13:11:19;;;;;;;;;11.75;11.25;;;;;22.96;43.04;101770.38;5075281;28;45357;-76
2023/05/23 13:13:45;;;;;;;;;13.50;12.00;;;;;22.83;43.09;101757.81;5065070;28;45567;-76
2023/05/23 13:16:11;;;;;;;;;13.00;11.50;;;;;23.12;43.18;101769.13;5058703;28;45526;-75
2023/05/23 13:18:36;;;;;;;;;11.50;10.25;;;;;23.52;41.39;101772.19;5054703;28;45277;-75
2023/05/23 13:21:02;;;;;;;;;9.00;9.00;;;;;23.73;40.99;101773.13;5054944;28;45529;-76
2023/05/23 13:23:28;;;;;;;;;15.25;12.75;;;;;24.21;39.97;101767.19;5054830;28;45218;-76
2023/05/23 13:25:53;;;;;;;;;12.75;11.25;;;;;24.54;39.58;101766.97;5054780;28;46205;-76
2023/05/23 13:28:19;;;;;;;;;10.50;10.50;;;;;24.99;38.44;101758.41;5036596;28;45352;-77
2023/05/23 13:30:44;;;;;;;;;11.50;11.50;;;;;24.93;38.79;101754.31;5054914;28;45351;-75
2023/05/23 13:33:09;;;;;;;;;16.25;14.00;;;;;24.71;38.86;101759.97;5036199;28;45882;-76
2023/05/23 13:35:35;;;;;;;;;10.75;10.00;;;;;24.60;38.41;101747.22;5054505;28;46007;-77
2023/05/23 13:38:00;;;;;;;;;9.00;8.75;;;;;24.42;39.17;101746.97;5055017;28;45285;-76
2023/05/23 13:40:25;;;;;;;;;8.50;6.75;;;;;24.74;38.38;101754.22;5055194;28;45790;-76
2023/05/23 13:42:51;;;;;;;;;11.25;8.25;;;;;24.97;37.44;101753.03;5055118;28;45472;-76
2023/05/23 13:45:17;;;;;;;;;9.75;9.75;;;;;25.21;37.46;101748.06;5055157;28;45995;-76
2023/05/23 13:47:43;;;;;;;;;9.25;9.00;;;;;25.21;37.25;101739.81;5054522;28;45330;-76
2023/05/23 13:50:09;;;;;;;;;12.25;9.25;;;;;25.17;37.19;101756.72;5054627;28;45387;-76
2023/05/23 13:52:35;;;;;;;;;11.25;11.25;;;;;25.03;38.14;101757.97;5064903;28;45539;-75
2023/05/23 13:55:01;;;;;;;;;17.25;10.75;;;;;24.84;38.62;101755.97;5058592;28;47177;-76
2023/05/23 13:57:27;;;;;;;;;12.25;11.75;;;;;25.04;38.51;101745.13;5075418;27;45366;-74
2023/05/23 13:59:52;;;;;;;;;12.50;12.50;;;;;25.10;38.12;101753.66;5079576;27;45260;-75
2023/05/23 14:02:17;;;;;;;;;8.00;8.00;;;;;25.06;37.78;101759.56;5074533;28;45395;-76
2023/05/23 14:04:43;;;;;;;;;14.75;12.75;;;;;25.09;37.81;101735.47;5039951;28;45810;-76
2023/05/23 14:07:08;;;;;;;;;11.75;10.25;;;;;25.29;37.80;101758.34;5036003;28;45340;-76
2023/05/23 14:09:33;;;;;;;;;14.00;11.25;;;;;25.20;37.95;101767.41;5054001;28;45228;-78
2023/05/23 14:11:59;;;;;;;;;15.00;13.25;;;;;25.02;38.26;101761.72;5053660;28;45541;-76
2023/05/23 14:14:25;;;;;;;;;12.50;12.00;;;;;25.10;38.28;101763.75;5072330;28;45456;-76
2023/05/23 14:16:51;;;;;;;;;16.25;12.50;;;;;25.53;37.11;101761.56;5053886;28;45344;-77
2023/05/23 14:19:16;;;;;;;;;13.25;11.50;;;;;25.88;37.04;101750.03;5035541;28;45270;-76
2023/05/23 14:21:41;;;;;;;;;10.50;10.50;;;;;25.99;37.65;101765.53;5053916;28;45310;-76
2023/05/23 14:24:07;;;;;;;;;13.50;12.75;;;;;25.81;36.89;101762.63;5053788;28;46547;-76
2023/05/23 14:26:32;;;;;;;;;13.25;8.50;;;;;25.51;37.10;101755.34;5053903;28;45237;-74
2023/05/23 14:28:57;;;;;;;;;11.50;11.50;;;;;25.49;38.06;101781.22;5053905;28;45342;-77
2023/05/23 14:31:23;;;;;;;;;12.00;11.50;;;;;25.69;38.22;101771.16;5053881;28;50724;-76
2023/05/23 14:33:48;;;;;;;;;11.50;9.25;;;;;26.00;37.16;101781.88;5053590;28;46322;-77
2023/05/23 14:36:15;;;;;;;;;15.75;12.00;;;;;26.18;37.24;101772.88;5053710;28;45476;-76
2023/05/23 14:38:44;;;;;;;;;10.75;10.75;;;;;26.05;36.98;101762.19;5018954;28;45285;-77
2023/05/23 14:41:09;;;;;;;;;13.75;11.25;;;;;25.86;37.06;101775.94;5053737;28;45212;-75
2023/05/23 14:43:34;;;;;;;;;15.50;11.50;;;;;25.66;37.36;101775.06;5053054;28;46658;-75
2023/05/23 14:46:00;;;;;;;;;11.25;8.75;;;;;25.37;36.84;101771.34;5053788;28;45340;-75
2023/05/23 14:48:25;;;;;;;;;9.75;9.75;;;;;25.17;37.47;101778.69;5035476;28;45320;-75
2023/05/23 14:50:51;;;;;;;;;12.50;10.50;;;;;25.15;38.38;101784.31;5053405;28;45556;-76
2023/05/23 14:53:20;;;;;;;;;14.00;11.50;;;;;25.12;37.85;101783.69;5068445;28;45477;-76
2023/05/23 14:55:45;;;;;;;;;14.00;12.25;;;;;24.92;37.66;101782.78;5057438;28;45326;-75
2023/05/23 14:58:11;;;;;;;;;13.75;8.75;;;;;24.67;37.63;101777.72;5067010;27;45493;-77
2023/05/23 15:00:37;;;;;;;;;12.00;12.00;;;;;24.60;37.97;101779.25;5073834;28;45536;-75
2023/05/23 15:03:02;;;;;;;;;10.00;9.50;;;;;24.31;38.60;101762.63;5073324;28;45607;-72
2023/05/23 15:05:27;;;;;;;;;9.75;9.75;;;;;24.31;38.56;101790.03;5073768;28;45235;-74
2023/05/23 15:07:53;;;;;;;;;11.50;9.00;;;;;24.31;38.48;101784.56;5073615;28;45158;-75
2023/05/23 15:10:18;;;;;;;;;10.50;9.25;;;;;24.65;37.59;101769.63;5073710;28;45948;-74
2023/05/23 15:12:43;;;;;;;;;9.25;9.25;;;;;25.19;37.32;101779.38;5067637;28;45259;-76
2023/05/23 15:15:09;;;;;;;;;7.75;7.75;;;;;25.49;36.41;101772.97;5069995;28;49550;-73
2023/05/23 15:17:35;;;;;;;;;9.75;9.00;;;;;25.79;36.21;101783.88;5073440;28;45355;-75
2023/05/23 15:20:00;;;;;;;;;12.25;9.00;;;;;25.84;35.76;101778.84;5073609;28;45710;-74
2023/05/23 15:22:25;;;;;;;;;10.00;9.25;;;;;25.73;35.65;101767.09;5073192;28;45625;-75
2023/05/23 15:24:51;;;;;;;;;10.75;10.75;;;;;25.69;35.64;101782.16;5075943;28;45506;-76
2023/05/23 15:27:16;;;;;;;;;7.75;7.75;;;;;25.61;35.88;101769.97;5076943;28;45336;-77
2023/05/23 15:29:42;;;;;;;;;11.25;9.50;;;;;25.67;35.69;101785.03;5058776;28;45623;-74
2023/05/23 15:32:07;;;;;;;;;5.75;5.75;;;;;25.51;35.61;101766.34;5076210;28;45369;-74
2023/05/23 15:34:33;;;;;;;;;9.50;9.00;;;;;25.39;35.95;101764.72;5076887;28;45249;-76
2023/05/23 15:36:58;;;;;;;;;13.50;9.75;;;;;25.37;36.11;101763.13;5076763;28;45438;-73
2023/05/23 15:39:27;;;;;;;;;11.00;8.25;;;;;25.22;35.78;101765.41;5076815;28;45582;-82
2023/05/23 15:41:52;;;;;;;;;8.25;7.75;;;;;24.98;36.41;101765.75;5076536;28;45483;-81